createdAt,value
2022-12-19T00:00:49.421Z,-7.17
2022-12-19T00:03:29.793Z,-7.18
2022-12-19T00:06:02.636Z,-7.22
2022-12-19T00:08:30.795Z,-7.25
2022-12-19T00:11:00.923Z,-7.28
2022-12-19T00:13:31.179Z,-7.31
2022-12-19T00:16:06.354Z,-7.34
2022-12-19T00:18:40.463Z,-7.37
2022-12-19T00:21:09.923Z,-7.40
2022-12-19T00:23:38.729Z,-7.43
2022-12-19T00:26:09.191Z,-7.44
2022-12-19T00:28:37.277Z,-7.46
2022-12-19T00:31:06.706Z,-7.47
2022-12-19T00:33:35.231Z,-7.48
2022-12-19T00:36:17.063Z,-7.51
2022-12-19T00:38:53.573Z,-7.53
2022-12-19T00:41:28.078Z,-7.55
2022-12-19T00:44:07.284Z,-7.56
2022-12-19T00:46:36.755Z,-7.56
2022-12-19T00:49:06.063Z,-7.56
2022-12-19T00:51:37.143Z,-7.57
2022-12-19T00:54:06.827Z,-7.58
2022-12-19T00:56:38.232Z,-7.58
2022-12-19T00:59:09.256Z,-7.59
2022-12-19T01:01:40.616Z,-7.59
2022-12-19T01:04:30.816Z,-7.60
2022-12-19T01:07:05.857Z,-7.61
2022-12-19T01:09:36.320Z,-7.63
2022-12-19T01:12:24.637Z,-7.65
2022-12-19T01:15:04.016Z,-7.68
2022-12-19T01:17:44.433Z,-7.70
2022-12-19T01:20:16.262Z,-7.73
2022-12-19T01:22:46.054Z,-7.76
2022-12-19T01:25:15.235Z,-7.78
2022-12-19T01:27:47.936Z,-7.82
2022-12-19T01:30:19.023Z,-7.85
2022-12-19T01:32:47.930Z,-7.89
2022-12-19T01:35:21.584Z,-7.91
2022-12-19T01:37:51.824Z,-7.93
2022-12-19T01:40:24.282Z,-7.96
2022-12-19T01:43:02.249Z,-7.98
2022-12-19T01:45:45.185Z,-8.02
2022-12-19T01:48:22.528Z,-8.04
2022-12-19T01:51:02.424Z,-8.06
2022-12-19T01:53:48.742Z,-8.08
2022-12-19T01:56:36.045Z,-8.13
2022-12-19T01:59:14.218Z,-8.12
2022-12-19T02:01:50.858Z,-8.15
2022-12-19T02:04:28.265Z,-8.18
2022-12-19T02:07:15.090Z,-8.21
2022-12-19T02:09:57.374Z,-8.23
2022-12-19T02:12:37.976Z,-8.24
2022-12-19T02:15:08.101Z,-8.26
2022-12-19T02:17:53.004Z,-8.27
2022-12-19T02:20:32.681Z,-8.28
2022-12-19T02:23:15.464Z,-8.29
2022-12-19T02:25:56.895Z,-8.30
2022-12-19T02:28:45.551Z,-8.30
2022-12-19T02:31:43.722Z,-8.31
2022-12-19T02:34:22.367Z,-8.31
2022-12-19T02:37:23.455Z,-8.31
2022-12-19T02:40:09.462Z,-8.30
2022-12-19T02:42:46.694Z,-8.30
2022-12-19T02:45:28.301Z,-8.28
2022-12-19T02:48:04.506Z,-8.26
2022-12-19T02:50:44.400Z,-8.24
2022-12-19T02:53:15.912Z,-8.19
2022-12-19T02:55:59.854Z,-8.14
2022-12-19T02:58:31.839Z,-8.08
2022-12-19T03:01:21.889Z,-8.02
2022-12-19T03:04:06.766Z,-7.95
2022-12-19T03:07:01.850Z,-7.89
2022-12-19T03:09:45.654Z,-7.83
2022-12-19T03:12:25.734Z,-7.77
2022-12-19T03:14:57.607Z,-7.69
2022-12-19T03:17:29.148Z,-7.66
2022-12-19T03:19:58.219Z,-7.61
2022-12-19T03:22:26.805Z,-7.56
2022-12-19T03:24:55.224Z,-7.50
2022-12-19T03:27:29.452Z,-7.44
2022-12-19T03:30:12.778Z,-7.38
2022-12-19T03:32:44.062Z,-7.32
2022-12-19T03:35:23.422Z,-7.27
2022-12-19T03:38:00.699Z,-7.22
2022-12-19T03:40:29.233Z,-7.18
2022-12-19T03:43:11.540Z,-7.13
2022-12-19T03:45:40.033Z,-7.07
2022-12-19T03:48:16.924Z,-7.03
2022-12-19T03:50:54.944Z,-7.00
2022-12-19T03:53:25.901Z,-6.98
2022-12-19T03:56:13.237Z,-6.94
2022-12-19T03:58:49.579Z,-6.91
2022-12-19T04:01:19.517Z,-6.88
2022-12-19T04:03:48.782Z,-6.84
2022-12-19T04:06:17.440Z,-6.80
2022-12-19T04:08:46.901Z,-6.76
2022-12-19T04:11:20.309Z,-6.73
2022-12-19T04:13:59.411Z,-6.71
2022-12-19T04:16:39.638Z,-6.67
2022-12-19T04:19:20.670Z,-6.64
2022-12-19T04:22:04.158Z,-6.61
2022-12-19T04:24:36.667Z,-6.58
2022-12-19T04:27:06.687Z,-6.57
2022-12-19T04:29:37.397Z,-6.56
2022-12-19T04:32:07.331Z,-6.55
2022-12-19T04:34:38.917Z,-6.53
2022-12-19T04:37:12.036Z,-6.52
2022-12-19T04:39:41.185Z,-6.51
2022-12-19T04:42:09.439Z,-6.50
2022-12-19T04:44:37.891Z,-6.48
2022-12-19T04:47:06.159Z,-6.46
2022-12-19T04:49:34.236Z,-6.44
2022-12-19T04:52:02.245Z,-6.43
2022-12-19T04:54:30.253Z,-6.41
2022-12-19T04:56:58.508Z,-6.38
2022-12-19T04:59:26.910Z,-6.37
2022-12-19T05:01:55.461Z,-6.35
2022-12-19T05:04:23.592Z,-6.34
2022-12-19T05:06:51.595Z,-6.34
2022-12-19T05:09:19.739Z,-6.35
2022-12-19T05:11:47.759Z,-6.35
2022-12-19T05:14:15.741Z,-6.33
2022-12-19T05:16:45.711Z,-6.36
2022-12-19T05:19:14.997Z,-6.38
2022-12-19T05:21:43.040Z,-6.38
2022-12-19T05:24:11.327Z,-6.39
2022-12-19T05:26:39.355Z,-6.39
2022-12-19T05:29:08.032Z,-6.38
2022-12-19T05:31:36.167Z,-6.38
2022-12-19T05:34:04.321Z,-6.37
2022-12-19T05:36:32.948Z,-6.38
2022-12-19T05:39:02.535Z,-6.41
2022-12-19T05:41:32.579Z,-6.44
2022-12-19T05:44:03.024Z,-6.44
2022-12-19T05:46:31.156Z,-6.46
2022-12-19T05:48:59.430Z,-6.45
2022-12-19T05:51:28.886Z,-6.44
2022-12-19T05:53:57.133Z,-6.42
2022-12-19T05:56:25.375Z,-6.41
2022-12-19T05:58:54.708Z,-6.42
2022-12-19T06:01:26.122Z,-6.41
2022-12-19T06:03:55.324Z,-6.39
2022-12-19T06:06:26.099Z,-6.38
2022-12-19T06:08:59.397Z,-6.37
2022-12-19T06:11:27.825Z,-6.36
2022-12-19T06:13:55.777Z,-6.36
2022-12-19T06:16:23.934Z,-6.36
2022-12-19T06:18:52.352Z,-6.37
2022-12-19T06:21:22.404Z,-6.36
2022-12-19T06:23:51.245Z,-6.34
2022-12-19T06:26:20.947Z,-6.31
2022-12-19T06:28:51.799Z,-6.29
2022-12-19T06:31:22.066Z,-6.25
2022-12-19T06:33:51.046Z,-6.22
2022-12-19T06:36:23.949Z,-6.16
2022-12-19T06:38:53.699Z,-6.10
2022-12-19T06:41:40.809Z,-6.04
2022-12-19T06:44:13.177Z,-5.98
2022-12-19T06:46:42.295Z,-5.93
2022-12-19T06:49:12.128Z,-5.85
2022-12-19T06:51:40.348Z,-5.77
2022-12-19T06:54:10.937Z,-5.70
2022-12-19T06:56:41.379Z,-5.63
2022-12-19T06:59:13.482Z,-5.56
2022-12-19T07:01:54.081Z,-5.49
2022-12-19T07:04:29.470Z,-5.39
2022-12-19T07:06:59.910Z,-5.30
2022-12-19T07:09:34.922Z,-5.20
2022-12-19T07:12:03.589Z,-5.10
2022-12-19T07:14:31.714Z,-5.00
2022-12-19T07:17:01.337Z,-4.91
2022-12-19T07:19:32.089Z,-4.79
2022-12-19T07:22:02.150Z,-4.70
2022-12-19T07:24:30.855Z,-4.63
2022-12-19T07:26:59.103Z,-4.57
2022-12-19T07:29:27.191Z,-4.52
2022-12-19T07:31:55.424Z,-4.48
2022-12-19T07:34:23.683Z,-4.43
2022-12-19T07:36:51.947Z,-4.37
2022-12-19T07:39:20.017Z,-4.33
2022-12-19T07:41:48.535Z,-4.33
2022-12-19T07:44:22.271Z,-4.32
2022-12-19T07:46:50.474Z,-4.30
2022-12-19T07:49:22.611Z,-4.29
2022-12-19T07:51:51.488Z,-4.26
2022-12-19T07:54:19.568Z,-4.22
2022-12-19T07:56:47.610Z,-4.19
2022-12-19T07:59:15.849Z,-4.16
2022-12-19T08:01:43.957Z,-4.12
2022-12-19T08:04:12.281Z,-4.07
2022-12-19T08:06:41.510Z,-4.02
2022-12-19T08:09:09.785Z,-3.94
2022-12-19T08:11:38.929Z,-3.80
2022-12-19T08:14:07.028Z,-3.61
2022-12-19T08:16:55.746Z,-3.39
2022-12-19T08:19:27.429Z,-3.18
2022-12-19T08:21:57.776Z,-2.97
2022-12-19T08:24:25.973Z,-2.77
2022-12-19T08:27:01.778Z,-2.58
2022-12-19T08:29:29.939Z,-2.37
2022-12-19T08:31:57.981Z,-2.16
2022-12-19T08:34:25.983Z,-1.96
2022-12-19T08:36:54.170Z,-1.76
2022-12-19T08:39:22.339Z,-1.61
2022-12-19T08:41:50.399Z,-1.51
2022-12-19T08:44:18.563Z,-1.42
2022-12-19T08:46:49.887Z,-1.33
2022-12-19T08:49:19.547Z,-1.29
2022-12-19T08:51:47.623Z,-1.23
2022-12-19T08:54:15.769Z,-1.17
2022-12-19T08:56:46.546Z,-1.03
2022-12-19T08:59:30.894Z,-0.98
2022-12-19T09:02:01.434Z,-0.94
2022-12-19T09:06:00.118Z,-0.92
2022-12-19T09:07:18.137Z,-0.94
2022-12-19T09:09:46.214Z,-0.99
2022-12-19T09:12:16.216Z,-1.02
2022-12-19T09:14:44.541Z,-1.07
2022-12-19T09:17:14.055Z,-1.10
2022-12-19T09:19:47.376Z,-1.13
2022-12-19T09:22:20.834Z,-1.06
2022-12-19T09:24:55.778Z,-0.91
2022-12-19T09:27:24.149Z,-0.65
2022-12-19T09:29:52.329Z,-0.53
2022-12-19T09:32:20.575Z,-0.56
2022-12-19T09:34:48.656Z,-0.48
2022-12-19T09:37:17.855Z,-0.37
2022-12-19T09:39:46.976Z,-0.13
2022-12-19T09:42:27.100Z,0.21
2022-12-19T09:44:59.362Z,0.57
2022-12-19T09:47:31.174Z,0.91
2022-12-19T09:50:02.136Z,1.18
2022-12-19T09:52:38.570Z,1.44
2022-12-19T09:55:30.373Z,1.66
2022-12-19T09:58:23.970Z,1.93
2022-12-19T10:00:59.866Z,2.25
2022-12-19T10:03:40.436Z,2.45
2022-12-19T10:07:16.110Z,2.61
2022-12-19T10:11:09.843Z,2.43
2022-12-19T10:12:49.991Z,2.33
2022-12-19T10:15:36.681Z,2.06
2022-12-19T10:18:22.957Z,1.91
2022-12-19T10:21:04.574Z,1.89
2022-12-19T10:24:02.843Z,1.99
2022-12-19T10:26:59.929Z,2.12
2022-12-19T10:29:46.253Z,2.27
2022-12-19T10:32:56.931Z,2.28
2022-12-19T10:35:35.156Z,2.30
2022-12-19T10:38:19.441Z,2.38
2022-12-19T10:41:06.402Z,2.36
2022-12-19T10:43:50.216Z,2.38
2022-12-19T10:46:47.057Z,2.47
2022-12-19T10:49:18.410Z,2.50
2022-12-19T10:52:04.654Z,2.53
2022-12-19T10:54:41.773Z,2.58
2022-12-19T10:57:25.469Z,2.61
2022-12-19T11:00:25.978Z,2.56
2022-12-19T11:03:19.011Z,2.44
2022-12-19T11:05:58.100Z,2.42
2022-12-19T11:08:32.079Z,2.38
2022-12-19T11:13:21.224Z,2.30
2022-12-19T11:19:42.724Z,2.23
2022-12-19T11:22:25.883Z,2.17
2022-12-19T11:25:43.789Z,2.08
2022-12-19T11:29:41.075Z,2.04
2022-12-19T11:30:36.186Z,2.03
2022-12-19T11:30:43.936Z,2.11
2022-12-19T11:34:21.438Z,2.19
2022-12-19T11:37:07.918Z,2.21
2022-12-19T11:39:59.737Z,2.17
2022-12-19T11:43:42.051Z,2.12
2022-12-19T11:46:17.661Z,2.10
2022-12-19T11:49:00.146Z,2.19
2022-12-19T11:51:35.087Z,2.27
2022-12-19T11:54:21.489Z,2.22
2022-12-19T11:56:51.197Z,2.12
2022-12-19T11:59:29.673Z,2.01
2022-12-19T12:02:53.557Z,1.87
2022-12-19T12:05:27.299Z,1.76
2022-12-19T12:11:56.860Z,1.75
2022-12-19T12:22:12.407Z,1.67
2022-12-19T12:22:50.042Z,1.57
2022-12-19T12:31:05.470Z,1.48
2022-12-19T12:31:39.617Z,1.29
2022-12-19T12:31:52.919Z,1.36
2022-12-19T12:32:05.782Z,1.42
2022-12-19T12:35:38.053Z,1.09
2022-12-19T12:41:04.473Z,0.80
2022-12-19T12:43:51.727Z,0.73
2022-12-19T12:46:24.396Z,0.71
2022-12-19T12:49:05.773Z,0.74
2022-12-19T12:51:35.128Z,0.74
2022-12-19T12:54:08.025Z,0.58
2022-12-19T12:56:37.296Z,0.38
2022-12-19T12:59:27.327Z,0.32
2022-12-19T13:02:18.907Z,0.31
2022-12-19T13:05:00.704Z,0.29
2022-12-19T13:07:41.797Z,0.30
2022-12-19T13:10:21.751Z,0.26
2022-12-19T13:13:16.472Z,0.21
2022-12-19T13:15:49.505Z,0.16
2022-12-19T13:18:38.095Z,0.12
2022-12-19T13:21:08.592Z,0.13
2022-12-19T13:23:36.644Z,0.14
2022-12-19T13:26:06.588Z,0.12
2022-12-19T13:28:34.697Z,0.12
2022-12-19T13:31:19.450Z,0.10
2022-12-19T13:33:54.814Z,0.03
2022-12-19T13:39:48.640Z,-0.10
2022-12-19T13:40:07.520Z,-0.20
2022-12-19T13:43:21.259Z,-0.24
2022-12-19T13:45:57.819Z,-0.28
2022-12-19T13:48:35.375Z,-0.36
2022-12-19T13:51:13.727Z,-0.49
2022-12-19T13:53:43.505Z,-0.64
2022-12-19T13:56:19.785Z,-0.79
2022-12-19T13:59:01.661Z,-0.99
2022-12-19T14:01:33.656Z,-1.20
2022-12-19T14:04:09.108Z,-1.38
2022-12-19T14:06:43.879Z,-1.56
2022-12-19T14:11:25.649Z,-1.70
2022-12-19T14:13:47.126Z,-1.87
2022-12-19T14:15:31.511Z,-2.04
2022-12-19T14:18:43.573Z,-2.17
2022-12-19T14:22:05.119Z,-2.29
2022-12-19T14:24:12.501Z,-2.40
2022-12-19T14:28:21.196Z,-2.48
2022-12-19T14:30:29.034Z,-2.57
2022-12-19T14:33:39.115Z,-2.68
2022-12-19T14:36:09.839Z,-2.77
2022-12-19T14:39:22.026Z,-2.87
2022-12-19T14:41:08.136Z,-2.97
2022-12-19T14:43:56.293Z,-3.05
2022-12-19T14:51:09.061Z,-3.12
2022-12-19T14:54:10.122Z,-3.21
2022-12-19T14:54:34.137Z,-3.30
2022-12-19T14:56:19.781Z,-3.38
2022-12-19T14:58:54.290Z,-3.48
2022-12-19T15:01:29.058Z,-3.57
2022-12-19T15:04:51.026Z,-3.66
2022-12-19T15:07:09.186Z,-3.74
2022-12-19T15:11:08.133Z,-3.81
2022-12-19T15:14:53.289Z,-3.88
2022-12-19T15:16:34.753Z,-3.95
2022-12-19T15:19:05.828Z,-3.99
2022-12-19T15:21:33.879Z,-4.03
2022-12-19T15:24:01.820Z,-4.06
2022-12-19T15:26:34.051Z,-4.09
2022-12-19T15:29:06.949Z,-4.12
2022-12-19T15:31:40.464Z,-4.13
2022-12-19T15:34:48.386Z,-4.16
2022-12-19T15:37:14.323Z,-4.18
2022-12-19T15:39:44.123Z,-4.22
2022-12-19T15:42:23.720Z,-4.24
2022-12-19T15:44:53.855Z,-4.27
2022-12-19T15:47:28.788Z,-4.30
2022-12-19T15:49:58.407Z,-4.32
2022-12-19T15:52:28.550Z,-4.34
2022-12-19T15:54:59.524Z,-4.36
2022-12-19T15:57:40.967Z,-4.40
2022-12-19T16:00:21.054Z,-4.42
2022-12-19T16:03:22.932Z,-4.44
2022-12-19T16:05:39.237Z,-4.48
2022-12-19T16:08:19.293Z,-4.51
2022-12-19T16:10:56.019Z,-4.54
2022-12-19T16:13:31.394Z,-4.57
2022-12-19T16:15:59.687Z,-4.60
2022-12-19T16:18:27.846Z,-4.62
2022-12-19T16:20:57.488Z,-4.64
2022-12-19T16:23:26.129Z,-4.66
2022-12-19T16:25:54.261Z,-4.68
2022-12-19T16:28:35.101Z,-4.71
2022-12-19T16:31:14.783Z,-4.73
2022-12-19T16:33:42.837Z,-4.76
2022-12-19T16:36:10.770Z,-4.78
2022-12-19T16:38:38.830Z,-4.79
2022-12-19T16:41:15.963Z,-4.81
2022-12-19T16:43:45.733Z,-4.79
2022-12-19T16:46:23.534Z,-4.78
2022-12-19T16:48:51.723Z,-4.78
2022-12-19T16:51:22.280Z,-4.77
2022-12-19T16:53:54.352Z,-4.77
2022-12-19T16:56:22.833Z,-4.77
2022-12-19T16:58:52.711Z,-4.77
2022-12-19T17:01:21.071Z,-4.78
2022-12-19T17:03:49.375Z,-4.77
2022-12-19T17:06:20.377Z,-4.78
2022-12-19T17:08:49.223Z,-4.78
2022-12-19T17:11:23.055Z,-4.78
2022-12-19T17:13:57.215Z,-4.79
2022-12-19T17:16:25.263Z,-4.79
2022-12-19T17:18:53.253Z,-4.79
2022-12-19T17:21:23.139Z,-4.82
2022-12-19T17:23:51.679Z,-4.87
2022-12-19T17:26:19.831Z,-4.92
2022-12-19T17:28:50.913Z,-4.97
2022-12-19T17:31:30.132Z,-5.03
2022-12-19T17:33:59.292Z,-5.07
2022-12-19T17:36:36.660Z,-5.11
2022-12-19T17:39:20.241Z,-5.16
2022-12-19T17:41:52.937Z,-5.19
2022-12-19T17:44:20.888Z,-5.22
2022-12-19T17:46:49.413Z,-5.25
2022-12-19T17:49:23.788Z,-5.26
2022-12-19T17:51:52.517Z,-5.27
2022-12-19T17:54:21.490Z,-5.28
2022-12-19T17:56:50.401Z,-5.31
2022-12-19T17:59:19.483Z,-5.33
2022-12-19T18:01:47.858Z,-5.34
2022-12-19T18:04:21.663Z,-5.36
2022-12-19T18:06:49.631Z,-5.38
2022-12-19T18:09:23.193Z,-5.40
2022-12-19T18:11:52.796Z,-5.43
2022-12-19T18:14:21.540Z,-5.44
2022-12-19T18:16:50.955Z,-5.47
2022-12-19T18:19:21.030Z,-5.48
2022-12-19T18:21:52.163Z,-5.50
2022-12-19T18:24:20.254Z,-5.51
2022-12-19T18:26:48.309Z,-5.52
2022-12-19T18:29:16.841Z,-5.54
2022-12-19T18:31:50.563Z,-5.56
2022-12-19T18:34:22.486Z,-5.57
2022-12-19T18:36:51.321Z,-5.59
2022-12-19T18:39:23.035Z,-5.60
2022-12-19T18:41:53.299Z,-5.61
2022-12-19T18:44:24.672Z,-5.61
2022-12-19T18:46:53.059Z,-5.60
2022-12-19T18:49:22.081Z,-5.60
2022-12-19T18:51:50.160Z,-5.60
2022-12-19T18:54:21.443Z,-5.62
2022-12-19T18:56:49.951Z,-5.63
2022-12-19T18:59:23.770Z,-5.65
2022-12-19T19:01:52.536Z,-5.67
2022-12-19T19:04:22.196Z,-5.70
2022-12-19T19:06:52.680Z,-5.73
2022-12-19T19:09:24.597Z,-5.75
2022-12-19T19:12:25.283Z,-5.76
2022-12-19T19:14:53.275Z,-5.78
2022-12-19T19:17:29.041Z,-5.79
2022-12-19T19:19:57.524Z,-5.80
2022-12-19T19:22:25.628Z,-5.81
2022-12-19T19:24:53.874Z,-5.82
2022-12-19T19:27:21.944Z,-5.83
2022-12-19T19:29:50.421Z,-5.84
2022-12-19T19:32:19.216Z,-5.85
2022-12-19T19:34:48.555Z,-5.86
2022-12-19T19:37:16.852Z,-5.87
2022-12-19T19:39:47.785Z,-5.89
2022-12-19T19:42:16.191Z,-5.90
2022-12-19T19:44:45.674Z,-5.91
2022-12-19T19:47:14.239Z,-5.92
2022-12-19T19:49:42.270Z,-5.94
2022-12-19T19:52:10.383Z,-5.94
2022-12-19T19:54:38.394Z,-5.96
2022-12-19T19:57:06.463Z,-5.98
2022-12-19T19:59:34.479Z,-5.99
2022-12-19T20:02:02.947Z,-6.01
2022-12-19T20:04:31.586Z,-6.02
2022-12-19T20:07:02.169Z,-6.03
2022-12-19T20:09:30.212Z,-6.06
2022-12-19T20:11:58.489Z,-6.09
2022-12-19T20:14:37.796Z,-6.11
2022-12-19T20:17:06.638Z,-6.13
2022-12-19T20:19:34.676Z,-6.16
2022-12-19T20:22:02.876Z,-6.18
2022-12-19T20:24:31.519Z,-6.19
2022-12-19T20:26:59.729Z,-6.20
2022-12-19T20:29:27.933Z,-6.22
2022-12-19T20:31:56.576Z,-6.23
2022-12-19T20:34:25.904Z,-6.24
2022-12-19T20:36:53.909Z,-6.25
2022-12-19T20:39:22.378Z,-6.26
2022-12-19T20:41:52.252Z,-6.27
2022-12-19T20:44:24.392Z,-6.28
2022-12-19T20:46:53.113Z,-6.28
2022-12-19T20:49:23.142Z,-6.29
2022-12-19T20:51:51.160Z,-6.28
2022-12-19T20:54:19.568Z,-6.28
2022-12-19T20:56:48.084Z,-6.28
2022-12-19T20:59:16.162Z,-6.29
2022-12-19T21:01:45.309Z,-6.30
2022-12-19T21:04:13.509Z,-6.30
2022-12-19T21:06:42.049Z,-6.31
2022-12-19T21:09:11.375Z,-6.30
2022-12-19T21:11:39.397Z,-6.32
2022-12-19T21:14:08.077Z,-6.33
2022-12-19T21:16:37.047Z,-6.34
2022-12-19T21:19:05.403Z,-6.36
2022-12-19T21:21:33.518Z,-6.38
2022-12-19T21:24:02.090Z,-6.39
2022-12-19T21:26:30.509Z,-6.39
2022-12-19T21:28:59.474Z,-6.40
2022-12-19T21:31:30.166Z,-6.42
2022-12-19T21:34:00.915Z,-6.44
2022-12-19T21:36:30.854Z,-6.46
2022-12-19T21:39:02.022Z,-6.49
2022-12-19T21:41:31.226Z,-6.53
2022-12-19T21:44:00.638Z,-6.57
2022-12-19T21:46:33.183Z,-6.60
2022-12-19T21:51:54.732Z,-6.68
2022-12-19T21:54:22.718Z,-6.71
2022-12-19T21:56:50.749Z,-6.73
2022-12-19T21:59:18.765Z,-6.75
2022-12-19T22:01:46.961Z,-6.78
2022-12-19T22:04:20.899Z,-6.81
2022-12-19T22:06:50.930Z,-6.86
2022-12-19T22:09:25.298Z,-6.90
2022-12-19T22:11:53.493Z,-6.94
2022-12-19T22:14:21.838Z,-6.99
2022-12-19T22:16:49.879Z,-7.04
2022-12-19T22:19:18.701Z,-7.05
2022-12-19T22:21:47.717Z,-7.08
2022-12-19T22:24:17.133Z,-7.11
2022-12-19T22:26:45.454Z,-7.14
2022-12-19T22:29:16.065Z,-7.16
2022-12-19T22:31:44.924Z,-7.17
2022-12-19T22:34:18.872Z,-7.19
2022-12-19T22:36:49.059Z,-7.20
2022-12-19T22:39:19.118Z,-7.22
2022-12-19T22:41:47.577Z,-7.23
2022-12-19T22:44:19.189Z,-7.24
2022-12-19T22:46:47.816Z,-7.25
2022-12-19T22:49:16.019Z,-7.27
2022-12-19T22:51:44.739Z,-7.28
2022-12-19T22:54:13.698Z,-7.28
2022-12-19T22:56:42.368Z,-7.29
2022-12-19T22:59:12.094Z,-7.28
2022-12-19T23:01:42.933Z,-7.27
2022-12-19T23:04:14.147Z,-7.27
2022-12-19T23:06:42.889Z,-7.28
2022-12-19T23:09:14.935Z,-7.29
2022-12-19T23:11:45.778Z,-7.31
2022-12-19T23:14:16.501Z,-7.34
2022-12-19T23:16:44.898Z,-7.39
2022-12-19T23:19:15.619Z,-7.43
2022-12-19T23:21:43.923Z,-7.47
2022-12-19T23:24:12.646Z,-7.51
2022-12-19T23:26:41.351Z,-7.54
2022-12-19T23:29:13.055Z,-7.59
2022-12-19T23:31:43.937Z,-7.61
2022-12-19T23:34:13.514Z,-7.64
2022-12-19T23:39:30.021Z,-7.73
2022-12-19T23:41:58.189Z,-7.77
2022-12-19T23:44:26.399Z,-7.80
2022-12-19T23:47:02.293Z,-7.84
2022-12-19T23:49:32.695Z,-7.88
2022-12-19T23:52:00.973Z,-7.91
2022-12-19T23:54:28.940Z,-7.95
2022-12-19T23:56:57.021Z,-7.98
2022-12-19T23:59:25.101Z,-8.00
